Pensacola, FL

6:46 AM CST on December 28, 2014 (GMT -0600)
Whiting Field Naval Air Station (South) | Change Station
CLOSE
Current Station
Airport
Location: Milton,
Elevation: 177 ft
Nearby Weather Stations

Elev 177 ft 30.70 °N, 87.02 °W | Updated 50 minutes ago

Overcast
Overcast
70 °F
Feels Like 70 °F
N
8
Wind Variable Wind from South

Today
High -- | Low -- °F
--% Chance of Precip.
Yesterday
High -- | Low -- °F
Precip. -- in
6:44 AM 4:56 PM
Waxing Crescent, 47% visible
Pressure 30.04 in
Visibility 8.0 miles
Clouds Overcast 400 ft
Dew Point 67 °F
Humidity 90%
Rainfall 0.00 in
Snow Depth Not available.
UV 0 out of 12
Pollen .50 out of 12
Air Quality Not available.
Flu Activity Not available.
METAR KNDZ 281156Z AUTO 18007KT 8SM OVC004 21/19 A3008 RMK AO2 SLP173 70045 T02110194 10211 20161 55000 $

More Conditions Fewer Conditions

Pressure 30.04 in
Visibility 8.0 miles
Clouds Overcast 400 ft
Dew Point 67 °F
Humidity 90%
Rainfall 0.00 in
Snow Depth Not available.
UV 0 out of 12
Pollen .50 out of 12
Air Quality Not available.
Flu Activity Not available.
METAR KNDZ 281156Z AUTO 18007KT 8SM OVC004 21/19 A3008 RMK AO2 SLP173 70045 T02110194 10211 20161 55000 $

More Conditions Fewer Conditions

10-Day Weather Forecast

Almanac

Astronomy

Dec. 28, 2014 Rise Set
Actual Time
Civil Twilight
Nautical Twilight
Astronomical Twilight
Moon
Length of Visible Light
Length of Day
Tomorrow will be .
, % of the Moon is Illuminated

Today's Extremes

State Highs State Lows

Community

WunderPhotos

Upload Photos

1,781,249 photos uploaded!

WunderBlogs® & News

Nearby

Air Quality

  Air Quality AQ Index Pollutant
Not available.

Snow Depth

Station Depth Elevation

Earthquake Activity

City Distance Mag. Time & Date
Minimum magnitude displayed is 2.5.

Coastal Water Temperatures

Place Temperature

Nearby Weather Stations